sensor_id;sensor_type;location;lat;lon;timestamp;pressure;altitude;pressure_sealevel;temperature;humidity
70468;BME280;57934;51.532;7.684;2023-03-31T00:00:45;99290.94;;;10.67;88.01
70468;BME280;57934;51.532;7.684;2023-03-31T00:03:13;99280.38;;;10.67;87.96
70468;BME280;57934;51.532;7.684;2023-03-31T00:05:56;99283.22;;;10.66;88.29
70468;BME280;57934;51.532;7.684;2023-03-31T00:08:24;99276.53;;;10.63;88.12
70468;BME280;57934;51.532;7.684;2023-03-31T00:10:50;99270.25;;;10.64;87.89
70468;BME280;57934;51.532;7.684;2023-03-31T00:13:16;99269.00;;;10.67;87.50
70468;BME280;57934;51.532;7.684;2023-03-31T00:15:43;99266.16;;;10.68;87.65
70468;BME280;57934;51.532;7.684;2023-03-31T00:18:09;99257.88;;;10.65;87.48
70468;BME280;57934;51.532;7.684;2023-03-31T00:20:35;99243.91;;;10.64;87.44
70468;BME280;57934;51.532;7.684;2023-03-31T00:23:04;99253.72;;;10.57;87.35
70468;BME280;57934;51.532;7.684;2023-03-31T00:25:38;99248.88;;;10.54;87.58
70468;BME280;57934;51.532;7.684;2023-03-31T00:28:05;99248.56;;;10.44;87.42
70468;BME280;57934;51.532;7.684;2023-03-31T00:30:31;99237.06;;;10.38;87.65
70468;BME280;57934;51.532;7.684;2023-03-31T00:32:59;99225.56;;;10.33;87.99
70468;BME280;57934;51.532;7.684;2023-03-31T00:35:25;99238.56;;;10.27;88.60
70468;BME280;57934;51.532;7.684;2023-03-31T00:37:51;99232.75;;;10.19;88.90
70468;BME280;57934;51.532;7.684;2023-03-31T00:40:18;99222.66;;;10.16;88.76
70468;BME280;57934;51.532;7.684;2023-03-31T00:42:45;99217.00;;;10.12;88.92
70468;BME280;57934;51.532;7.684;2023-03-31T00:47:44;99205.69;;;10.12;88.81
70468;BME280;57934;51.532;7.684;2023-03-31T00:50:30;99203.25;;;10.10;89.00
70468;BME280;57934;51.532;7.684;2023-03-31T00:53:10;99197.41;;;10.08;89.19
70468;BME280;57934;51.532;7.684;2023-03-31T00:55:41;99193.75;;;10.09;89.08
70468;BME280;57934;51.532;7.684;2023-03-31T00:58:09;99187.66;;;10.09;88.96
70468;BME280;57934;51.532;7.684;2023-03-31T01:00:40;99181.97;;;10.12;89.05
70468;BME280;57934;51.532;7.684;2023-03-31T01:03:07;99178.97;;;10.08;89.33
70468;BME280;57934;51.532;7.684;2023-03-31T01:05:37;99177.19;;;10.02;89.51
70468;BME280;57934;51.532;7.684;2023-03-31T01:08:05;99172.16;;;10.00;89.25
70468;BME280;57934;51.532;7.684;2023-03-31T01:10:34;99173.75;;;10.01;89.21
70468;BME280;57934;51.532;7.684;2023-03-31T01:13:10;99171.31;;;10.00;89.02
70468;BME280;57934;51.532;7.684;2023-03-31T01:15:38;99169.28;;;10.02;88.61
70468;BME280;57934;51.532;7.684;2023-03-31T01:18:05;99165.63;;;10.03;88.86
70468;BME280;57934;51.532;7.684;2023-03-31T01:20:57;99160.16;;;10.04;89.10
70468;BME280;57934;51.532;7.684;2023-03-31T01:29:30;99157.84;;;10.15;88.97
70468;BME280;57934;51.532;7.684;2023-03-31T01:46:17;99123.63;;;9.65;95.48
70468;BME280;57934;51.532;7.684;2023-03-31T01:49:12;99115.22;;;9.56;96.92
70468;BME280;57934;51.532;7.684;2023-03-31T01:52:07;99110.66;;;9.45;97.83
70468;BME280;57934;51.532;7.684;2023-03-31T01:54:38;99109.41;;;9.47;98.95
70468;BME280;57934;51.532;7.684;2023-03-31T01:57:15;99099.91;;;9.46;99.51
70468;BME280;57934;51.532;7.684;2023-03-31T02:02:35;99087.66;;;9.33;100.00
70468;BME280;57934;51.532;7.684;2023-03-31T02:05:16;99086.28;;;9.31;100.00
70468;BME280;57934;51.532;7.684;2023-03-31T02:07:48;99079.19;;;9.31;100.00
70468;BME280;57934;51.532;7.684;2023-03-31T02:10:16;99073.94;;;9.31;100.00
70468;BME280;57934;51.532;7.684;2023-03-31T02:12:44;99071.50;;;9.30;100.00
70468;BME280;57934;51.532;7.684;2023-03-31T02:15:13;99063.03;;;9.28;100.00
70468;BME280;57934;51.532;7.684;2023-03-31T02:17:44;99057.97;;;9.26;100.00
70468;BME280;57934;51.532;7.684;2023-03-31T02:20:14;99051.91;;;9.26;100.00
70468;BME280;57934;51.532;7.684;2023-03-31T02:22:48;99048.06;;;9.28;100.00
70468;BME280;57934;51.532;7.684;2023-03-31T02:25:18;99046.88;;;9.24;100.00
70468;BME280;57934;51.532;7.684;2023-03-31T02:27:53;99040.41;;;9.27;100.00
70468;BME280;57934;51.532;7.684;2023-03-31T02:30:20;99036.94;;;9.26;100.00
70468;BME280;57934;51.532;7.684;2023-03-31T02:32:47;99027.03;;;9.28;100.00
70468;BME280;57934;51.532;7.684;2023-03-31T02:35:18;99016.34;;;9.23;100.00
70468;BME280;57934;51.532;7.684;2023-03-31T02:37:47;99014.91;;;9.27;100.00
70468;BME280;57934;51.532;7.684;2023-03-31T02:40:20;99015.97;;;9.20;100.00
70468;BME280;57934;51.532;7.684;2023-03-31T02:42:47;99002.47;;;9.16;100.00
70468;BME280;57934;51.532;7.684;2023-03-31T02:47:58;99001.81;;;9.21;100.00
70468;BME280;57934;51.532;7.684;2023-03-31T02:50:29;98992.94;;;9.15;100.00
70468;BME280;57934;51.532;7.684;2023-03-31T02:53:12;98985.22;;;9.20;100.00
70468;BME280;57934;51.532;7.684;2023-03-31T03:04:18;98959.72;;;9.21;100.00
70468;BME280;57934;51.532;7.684;2023-03-31T03:10:16;98952.19;;;9.24;100.00
70468;BME280;57934;51.532;7.684;2023-03-31T03:15:29;98919.78;;;9.30;100.00
70468;BME280;57934;51.532;7.684;2023-03-31T03:17:57;98918.56;;;9.26;100.00
70468;BME280;57934;51.532;7.684;2023-03-31T03:20:23;98910.91;;;9.25;100.00
70468;BME280;57934;51.532;7.684;2023-03-31T03:22:50;98899.38;;;9.26;100.00
70468;BME280;57934;51.532;7.684;2023-03-31T03:25:16;98896.16;;;9.24;100.00
70468;BME280;57934;51.532;7.684;2023-03-31T03:27:42;98881.63;;;9.21;100.00
70468;BME280;57934;51.532;7.684;2023-03-31T03:30:11;98882.78;;;9.25;100.00
70468;BME280;57934;51.532;7.684;2023-03-31T03:32:37;98871.47;;;9.25;100.00
70468;BME280;57934;51.532;7.684;2023-03-31T03:35:04;98880.75;;;9.27;100.00
70468;BME280;57934;51.532;7.684;2023-03-31T03:37:31;98876.72;;;9.25;100.00
70468;BME280;57934;51.532;7.684;2023-03-31T03:39:58;98876.28;;;9.28;100.00
70468;BME280;57934;51.532;7.684;2023-03-31T03:42:24;98876.50;;;9.26;100.00
70468;BME280;57934;51.532;7.684;2023-03-31T03:44:50;98863.34;;;9.26;100.00
70468;BME280;57934;51.532;7.684;2023-03-31T03:47:16;98854.88;;;9.24;100.00
70468;BME280;57934;51.532;7.684;2023-03-31T03:49:43;98849.41;;;9.26;100.00
70468;BME280;57934;51.532;7.684;2023-03-31T03:52:09;98837.88;;;9.27;100.00
70468;BME280;57934;51.532;7.684;2023-03-31T03:54:35;98826.31;;;9.28;100.00
70468;BME280;57934;51.532;7.684;2023-03-31T03:57:01;98826.53;;;9.26;100.00
70468;BME280;57934;51.532;7.684;2023-03-31T03:59:28;98828.59;;;9.24;100.00
70468;BME280;57934;51.532;7.684;2023-03-31T04:01:54;98821.94;;;9.22;100.00
70468;BME280;57934;51.532;7.684;2023-03-31T04:04:20;98809.38;;;9.24;100.00
70468;BME280;57934;51.532;7.684;2023-03-31T04:06:46;98806.38;;;9.20;100.00
70468;BME280;57934;51.532;7.684;2023-03-31T04:09:12;98803.75;;;9.20;100.00
70468;BME280;57934;51.532;7.684;2023-03-31T04:11:38;98809.38;;;9.24;100.00
70468;BME280;57934;51.532;7.684;2023-03-31T04:14:04;98806.38;;;9.20;100.00
70468;BME280;57934;51.532;7.684;2023-03-31T04:16:30;98813.59;;;9.25;100.00
70468;BME280;57934;51.532;7.684;2023-03-31T04:18:59;98801.69;;;9.22;100.00
70468;BME280;57934;51.532;7.684;2023-03-31T04:21:29;98785.47;;;9.25;100.00
70468;BME280;57934;51.532;7.684;2023-03-31T04:24:00;98765.66;;;9.23;100.00
70468;BME280;57934;51.532;7.684;2023-03-31T04:26:31;98769.78;;;9.19;100.00
70468;BME280;57934;51.532;7.684;2023-03-31T04:29:11;98774.81;;;9.20;100.00
70468;BME280;57934;51.532;7.684;2023-03-31T04:31:39;98758.69;;;9.17;100.00
70468;BME280;57934;51.532;7.684;2023-03-31T04:34:12;98750.56;;;9.18;100.00
70468;BME280;57934;51.532;7.684;2023-03-31T04:36:39;98750.56;;;9.18;100.00
70468;BME280;57934;51.532;7.684;2023-03-31T04:39:08;98748.59;;;9.14;100.00
70468;BME280;57934;51.532;7.684;2023-03-31T04:41:37;98743.56;;;9.12;100.00
70468;BME280;57934;51.532;7.684;2023-03-31T04:44:03;98746.19;;;9.12;100.00
70468;BME280;57934;51.532;7.684;2023-03-31T04:46:31;98739.34;;;9.11;100.00
70468;BME280;57934;51.532;7.684;2023-03-31T04:48:57;98740.22;;;9.05;100.00
70468;BME280;57934;51.532;7.684;2023-03-31T04:51:24;98730.75;;;9.16;100.00
70468;BME280;57934;51.532;7.684;2023-03-31T04:53:50;98722.31;;;9.14;100.00
70468;BME280;57934;51.532;7.684;2023-03-31T04:56:16;98717.41;;;9.17;100.00
70468;BME280;57934;51.532;7.684;2023-03-31T04:58:42;98720.72;;;9.13;100.00
70468;BME280;57934;51.532;7.684;2023-03-31T05:01:09;98720.47;;;9.14;100.00
70468;BME280;57934;51.532;7.684;2023-03-31T05:03:38;98721.06;;;9.16;100.00
70468;BME280;57934;51.532;7.684;2023-03-31T05:06:04;98724.28;;;9.18;100.00
70468;BME280;57934;51.532;7.684;2023-03-31T05:08:31;98725.66;;;9.21;100.00
70468;BME280;57934;51.532;7.684;2023-03-31T05:10:56;98713.22;;;9.28;100.00
70468;BME280;57934;51.532;7.684;2023-03-31T05:13:22;98715.25;;;9.26;100.00
70468;BME280;57934;51.532;7.684;2023-03-31T05:15:49;98708.16;;;9.26;100.00
70468;BME280;57934;51.532;7.684;2023-03-31T05:18:16;98710.00;;;9.26;100.00
70468;BME280;57934;51.532;7.684;2023-03-31T05:20:43;98701.63;;;9.17;100.00
70468;BME280;57934;51.532;7.684;2023-03-31T05:23:09;98702.06;;;9.14;100.00
70468;BME280;57934;51.532;7.684;2023-03-31T05:25:35;98684.72;;;9.13;100.00
70468;BME280;57934;51.532;7.684;2023-03-31T05:28:02;98676.13;;;9.18;100.00
70468;BME280;57934;51.532;7.684;2023-03-31T05:30:29;98670.41;;;9.09;100.00
70468;BME280;57934;51.532;7.684;2023-03-31T05:32:55;98661.34;;;9.05;100.00
70468;BME280;57934;51.532;7.684;2023-03-31T05:35:22;98665.22;;;9.02;100.00
70468;BME280;57934;51.532;7.684;2023-03-31T05:37:48;98654.25;;;9.05;100.00
70468;BME280;57934;51.532;7.684;2023-03-31T05:40:14;98651.50;;;9.00;100.00
70468;BME280;57934;51.532;7.684;2023-03-31T05:42:40;98641.22;;;8.99;100.00
70468;BME280;57934;51.532;7.684;2023-03-31T05:45:06;98626.00;;;9.01;100.00
70468;BME280;57934;51.532;7.684;2023-03-31T05:47:33;98618.56;;;8.98;100.00
70468;BME280;57934;51.532;7.684;2023-03-31T05:49:59;98611.72;;;8.97;100.00
70468;BME280;57934;51.532;7.684;2023-03-31T05:52:25;98601.88;;;8.92;100.00
70468;BME280;57934;51.532;7.684;2023-03-31T05:54:51;98598.44;;;8.92;100.00
70468;BME280;57934;51.532;7.684;2023-03-31T05:57:17;98586.66;;;8.94;100.00
70468;BME280;57934;51.532;7.684;2023-03-31T05:59:43;98586.66;;;8.94;100.00
70468;BME280;57934;51.532;7.684;2023-03-31T06:02:12;98586.00;;;8.99;100.00
70468;BME280;57934;51.532;7.684;2023-03-31T06:04:38;98577.44;;;8.92;100.00
70468;BME280;57934;51.532;7.684;2023-03-31T06:07:04;98574.31;;;8.95;100.00
70468;BME280;57934;51.532;7.684;2023-03-31T06:09:31;98559.13;;;8.97;100.00
70468;BME280;57934;51.532;7.684;2023-03-31T06:11:57;98554.81;;;9.02;100.00
70468;BME280;57934;51.532;7.684;2023-03-31T06:14:23;98552.97;;;9.03;100.00
70468;BME280;57934;51.532;7.684;2023-03-31T06:16:49;98543.50;;;9.14;100.00
70468;BME280;57934;51.532;7.684;2023-03-31T06:19:15;98545.78;;;9.22;100.00
70468;BME280;57934;51.532;7.684;2023-03-31T06:21:42;98541.00;;;9.30;100.00
70468;BME280;57934;51.532;7.684;2023-03-31T06:24:08;98525.91;;;9.38;100.00
70468;BME280;57934;51.532;7.684;2023-03-31T06:26:34;98531.28;;;9.43;99.55
70468;BME280;57934;51.532;7.684;2023-03-31T06:29:01;98536.78;;;9.53;99.05
70468;BME280;57934;51.532;7.684;2023-03-31T06:31:27;98523.63;;;9.53;99.05
70468;BME280;57934;51.532;7.684;2023-03-31T06:33:53;98518.44;;;9.58;97.11
70468;BME280;57934;51.532;7.684;2023-03-31T06:36:20;98525.69;;;9.63;97.08
70468;BME280;57934;51.532;7.684;2023-03-31T06:38:48;98524.75;;;9.69;96.21
70468;BME280;57934;51.532;7.684;2023-03-31T06:41:16;98514.56;;;9.72;96.38
70468;BME280;57934;51.532;7.684;2023-03-31T06:43:43;98515.72;;;9.76;96.51
70468;BME280;57934;51.532;7.684;2023-03-31T06:46:09;98498.41;;;9.80;93.51
70468;BME280;57934;51.532;7.684;2023-03-31T06:48:35;98507.81;;;9.76;93.14
70468;BME280;57934;51.532;7.684;2023-03-31T06:51:04;98502.66;;;9.58;94.16
70468;BME280;57934;51.532;7.684;2023-03-31T06:53:31;98498.47;;;9.45;94.88
70468;BME280;57934;51.532;7.684;2023-03-31T06:55:57;98505.88;;;9.37;95.18
70468;BME280;57934;51.532;7.684;2023-03-31T06:58:23;98498.94;;;9.30;96.22
70468;BME280;57934;51.532;7.684;2023-03-31T07:00:49;98497.66;;;9.21;97.17
70468;BME280;57934;51.532;7.684;2023-03-31T07:03:15;98482.22;;;9.25;97.97
70468;BME280;57934;51.532;7.684;2023-03-31T07:05:51;98486.34;;;9.21;98.52
70468;BME280;57934;51.532;7.684;2023-03-31T07:08:17;98492.50;;;9.26;97.73
70468;BME280;57934;51.532;7.684;2023-03-31T07:10:44;98485.44;;;9.27;98.02
70468;BME280;57934;51.532;7.684;2023-03-31T07:13:15;98490.47;;;9.28;97.52
70468;BME280;57934;51.532;7.684;2023-03-31T07:15:42;98487.03;;;9.28;97.87
70468;BME280;57934;51.532;7.684;2023-03-31T07:18:08;98483.03;;;9.25;98.22
70468;BME280;57934;51.532;7.684;2023-03-31T07:20:34;98484.50;;;9.21;98.39
70468;BME280;57934;51.532;7.684;2023-03-31T07:23:03;98480.75;;;9.17;98.88
70468;BME280;57934;51.532;7.684;2023-03-31T07:25:30;98487.25;;;9.15;100.00
70468;BME280;57934;51.532;7.684;2023-03-31T07:27:56;98482.00;;;9.15;100.00
70468;BME280;57934;51.532;7.684;2023-03-31T07:30:23;98484.53;;;9.10;100.00
70468;BME280;57934;51.532;7.684;2023-03-31T07:32:50;98472.28;;;9.03;100.00
70468;BME280;57934;51.532;7.684;2023-03-31T07:35:17;98485.88;;;9.00;100.00
70468;BME280;57934;51.532;7.684;2023-03-31T07:37:45;98490.91;;;9.02;100.00
70468;BME280;57934;51.532;7.684;2023-03-31T07:40:18;98483.59;;;9.04;100.00
70468;BME280;57934;51.532;7.684;2023-03-31T07:42:44;98475.47;;;9.05;100.00
70468;BME280;57934;51.532;7.684;2023-03-31T07:45:12;98487.13;;;8.98;100.00
70468;BME280;57934;51.532;7.684;2023-03-31T07:47:38;98478.00;;;9.00;100.00
70468;BME280;57934;51.532;7.684;2023-03-31T07:50:06;98481.56;;;9.06;100.00
70468;BME280;57934;51.532;7.684;2023-03-31T07:52:32;98476.50;;;9.04;100.00
70468;BME280;57934;51.532;7.684;2023-03-31T07:54:59;98479.38;;;9.03;100.00
70468;BME280;57934;51.532;7.684;2023-03-31T07:57:25;98475.47;;;9.05;100.00
70468;BME280;57934;51.532;7.684;2023-03-31T07:59:52;98473.66;;;9.06;100.00
70468;BME280;57934;51.532;7.684;2023-03-31T08:02:18;98473.53;;;9.01;100.00
70468;BME280;57934;51.532;7.684;2023-03-31T08:04:46;98470.00;;;8.95;100.00
70468;BME280;57934;51.532;7.684;2023-03-31T08:07:13;98462.56;;;9.04;100.00
70468;BME280;57934;51.532;7.684;2023-03-31T08:09:40;98456.84;;;9.07;100.00
70468;BME280;57934;51.532;7.684;2023-03-31T08:12:07;98458.13;;;9.16;100.00
70468;BME280;57934;51.532;7.684;2023-03-31T08:14:34;98454.44;;;9.17;100.00
70468;BME280;57934;51.532;7.684;2023-03-31T08:17:00;98444.81;;;9.23;100.00
70468;BME280;57934;51.532;7.684;2023-03-31T08:19:26;98442.91;;;9.18;100.00
70468;BME280;57934;51.532;7.684;2023-03-31T08:21:53;98439.69;;;9.28;100.00
70468;BME280;57934;51.532;7.684;2023-03-31T08:24:19;98431.81;;;9.28;100.00
70468;BME280;57934;51.532;7.684;2023-03-31T08:26:45;98428.50;;;9.21;100.00
70468;BME280;57934;51.532;7.684;2023-03-31T08:29:12;98433.75;;;9.21;100.00
70468;BME280;57934;51.532;7.684;2023-03-31T08:31:38;98433.31;;;9.24;100.00
70468;BME280;57934;51.532;7.684;2023-03-31T08:34:04;98431.69;;;9.35;100.00
70468;BME280;57934;51.532;7.684;2023-03-31T08:36:31;98426.97;;;9.48;100.00
70468;BME280;57934;51.532;7.684;2023-03-31T08:38:58;98433.91;;;9.66;100.00
70468;BME280;57934;51.532;7.684;2023-03-31T08:44:30;98425.44;;;9.64;100.00
70468;BME280;57934;51.532;7.684;2023-03-31T08:47:00;98428.53;;;9.73;100.00
70468;BME280;57934;51.532;7.684;2023-03-31T08:49:32;98417.47;;;9.88;100.00
70468;BME280;57934;51.532;7.684;2023-03-31T08:52:03;98407.84;;;9.93;99.03
70468;BME280;57934;51.532;7.684;2023-03-31T08:54:36;98412.13;;;10.11;97.68
70468;BME280;57934;51.532;7.684;2023-03-31T08:57:11;98405.97;;;10.51;96.94
70468;BME280;57934;51.532;7.684;2023-03-31T08:59:40;98406.09;;;10.95;93.39
70468;BME280;57934;51.532;7.684;2023-03-31T09:02:20;98416.78;;;11.66;90.16
70468;BME280;57934;51.532;7.684;2023-03-31T09:10:50;98404.81;;;11.58;86.29
70468;BME280;57934;51.532;7.684;2023-03-31T09:16:13;98404.06;;;11.63;86.99
70468;BME280;57934;51.532;7.684;2023-03-31T09:18:41;98402.53;;;11.67;85.76
70468;BME280;57934;51.532;7.684;2023-03-31T09:21:19;98405.38;;;11.38;86.32
70468;BME280;57934;51.532;7.684;2023-03-31T09:26:36;98397.50;;;11.43;87.16
70468;BME280;57934;51.532;7.684;2023-03-31T09:29:09;98402.09;;;11.53;86.25
70468;BME280;57934;51.532;7.684;2023-03-31T09:31:37;98394.03;;;11.65;86.94
70468;BME280;57934;51.532;7.684;2023-03-31T09:34:12;98392.22;;;11.87;86.28
70468;BME280;57934;51.532;7.684;2023-03-31T09:36:39;98394.53;;;12.06;84.97
70468;BME280;57934;51.532;7.684;2023-03-31T09:39:05;98391.78;;;12.55;85.06
70468;BME280;57934;51.532;7.684;2023-03-31T09:41:31;98389.88;;;13.25;82.59
70468;BME280;57934;51.532;7.684;2023-03-31T09:43:57;98386.94;;;13.94;77.10
70468;BME280;57934;51.532;7.684;2023-03-31T09:49:13;98402.00;;;13.83;76.33
70468;BME280;57934;51.532;7.684;2023-03-31T09:51:45;98394.84;;;13.21;78.87
70468;BME280;57934;51.532;7.684;2023-03-31T09:56:50;98394.97;;;12.57;82.32
70468;BME280;57934;51.532;7.684;2023-03-31T09:59:28;98393.66;;;12.59;82.56
70468;BME280;57934;51.532;7.684;2023-03-31T10:01:58;98379.97;;;12.68;82.64
70468;BME280;57934;51.532;7.684;2023-03-31T10:04:33;98373.06;;;12.66;82.51
70468;BME280;57934;51.532;7.684;2023-03-31T10:07:00;98365.47;;;12.75;82.45
70468;BME280;57934;51.532;7.684;2023-03-31T10:09:32;98372.78;;;13.05;82.06
70468;BME280;57934;51.532;7.684;2023-03-31T10:12:05;98370.75;;;13.18;80.54
70468;BME280;57934;51.532;7.684;2023-03-31T10:14:53;98362.75;;;13.12;79.53
70468;BME280;57934;51.532;7.684;2023-03-31T10:17:23;98359.56;;;13.05;80.16
70468;BME280;57934;51.532;7.684;2023-03-31T10:19:52;98360.34;;;13.01;79.53
70468;BME280;57934;51.532;7.684;2023-03-31T10:24:52;98355.91;;;12.69;81.36
70468;BME280;57934;51.532;7.684;2023-03-31T10:27:26;98347.97;;;12.32;83.49
70468;BME280;57934;51.532;7.684;2023-03-31T10:30:00;98346.72;;;11.80;83.87
70468;BME280;57934;51.532;7.684;2023-03-31T10:32:37;98338.75;;;11.53;85.29
70468;BME280;57934;51.532;7.684;2023-03-31T10:37:37;98328.69;;;11.50;85.94
70468;BME280;57934;51.532;7.684;2023-03-31T10:40:14;98316.84;;;11.53;85.40
70468;BME280;57934;51.532;7.684;2023-03-31T10:42:44;98322.72;;;11.60;83.86
70468;BME280;57934;51.532;7.684;2023-03-31T10:45:22;98312.13;;;11.82;84.25
70468;BME280;57934;51.532;7.684;2023-03-31T10:47:52;98310.78;;;12.06;83.13
70468;BME280;57934;51.532;7.684;2023-03-31T10:50:26;98309.44;;;12.36;82.81
70468;BME280;57934;51.532;7.684;2023-03-31T10:53:05;98307.19;;;12.60;82.73
70468;BME280;57934;51.532;7.684;2023-03-31T11:01:24;98317.88;;;12.75;83.27
70468;BME280;57934;51.532;7.684;2023-03-31T11:07:09;98306.88;;;12.51;83.87
70468;BME280;57934;51.532;7.684;2023-03-31T11:18:16;98300.28;;;12.16;80.69
70468;BME280;57934;51.532;7.684;2023-03-31T11:23:48;98311.28;;;12.78;79.70
70468;BME280;57934;51.532;7.684;2023-03-31T11:26:29;98299.53;;;13.11;78.45
70468;BME280;57934;51.532;7.684;2023-03-31T11:32:20;98284.34;;;14.61;73.90
70468;BME280;57934;51.532;7.684;2023-03-31T11:43:01;98266.19;;;18.59;58.53
70468;BME280;57934;51.532;7.684;2023-03-31T11:45:37;98254.22;;;18.70;57.52
70468;BME280;57934;51.532;7.684;2023-03-31T11:48:13;98258.28;;;18.40;58.21
70468;BME280;57934;51.532;7.684;2023-03-31T11:50:43;98269.00;;;17.32;60.94
70468;BME280;57934;51.532;7.684;2023-03-31T11:53:17;98275.41;;;16.06;65.68
70468;BME280;57934;51.532;7.684;2023-03-31T11:55:47;98325.19;;;14.65;70.25
70468;BME280;57934;51.532;7.684;2023-03-31T11:58:23;98362.13;;;13.38;78.03
70468;BME280;57934;51.532;7.684;2023-03-31T12:01:05;98365.84;;;11.92;82.18
70468;BME280;57934;51.532;7.684;2023-03-31T12:03:46;98360.44;;;11.11;86.17
70468;BME280;57934;51.532;7.684;2023-03-31T12:06:20;98351.31;;;10.63;89.13
70468;BME280;57934;51.532;7.684;2023-03-31T12:11:47;98353.19;;;10.29;92.77
70468;BME280;57934;51.532;7.684;2023-03-31T12:14:34;98350.66;;;10.22;94.17
70468;BME280;57934;51.532;7.684;2023-03-31T12:17:09;98341.72;;;10.23;95.02
70468;BME280;57934;51.532;7.684;2023-03-31T12:19:44;98335.66;;;10.23;96.19
70468;BME280;57934;51.532;7.684;2023-03-31T12:22:17;98337.88;;;10.14;95.51
70468;BME280;57934;51.532;7.684;2023-03-31T12:24:44;98318.09;;;10.12;95.95
70468;BME280;57934;51.532;7.684;2023-03-31T12:27:42;98327.34;;;10.14;95.92
70468;BME280;57934;51.532;7.684;2023-03-31T12:30:16;98313.91;;;10.27;97.02
70468;BME280;57934;51.532;7.684;2023-03-31T12:44:27;98297.59;;;11.08;95.31
70468;BME280;57934;51.532;7.684;2023-03-31T12:47:17;98296.94;;;11.18;92.74
70468;BME280;57934;51.532;7.684;2023-03-31T12:55:39;98280.53;;;12.24;87.44
70468;BME280;57934;51.532;7.684;2023-03-31T13:01:39;98284.28;;;12.71;86.74
70468;BME280;57934;51.532;7.684;2023-03-31T13:11:44;98282.34;;;12.18;89.55
70468;BME280;57934;51.532;7.684;2023-03-31T13:14:30;98280.13;;;12.05;89.73
70468;BME280;57934;51.532;7.684;2023-03-31T13:17:36;98282.28;;;11.81;89.84
70468;BME280;57934;51.532;7.684;2023-03-31T13:20:15;98284.28;;;11.69;90.91
70468;BME280;57934;51.532;7.684;2023-03-31T13:22:45;98300.03;;;11.59;91.20
70468;BME280;57934;51.532;7.684;2023-03-31T13:25:36;98284.00;;;11.43;91.53
70468;BME280;57934;51.532;7.684;2023-03-31T13:28:16;98284.78;;;11.39;92.46
70468;BME280;57934;51.532;7.684;2023-03-31T13:30:49;98283.44;;;11.63;93.24
70468;BME280;57934;51.532;7.684;2023-03-31T13:34:11;98270.56;;;11.99;92.09
70468;BME280;57934;51.532;7.684;2023-03-31T13:39:33;98269.81;;;12.04;90.62
70468;BME280;57934;51.532;7.684;2023-03-31T13:42:05;98265.50;;;11.92;91.34
70468;BME280;57934;51.532;7.684;2023-03-31T13:44:47;98259.78;;;12.01;92.86
70468;BME280;57934;51.532;7.684;2023-03-31T13:47:43;98251.06;;;12.05;91.09
70468;BME280;57934;51.532;7.684;2023-03-31T13:55:56;98259.31;;;12.51;88.15
70468;BME280;57934;51.532;7.684;2023-03-31T14:04:19;98256.31;;;12.00;88.79
70468;BME280;57934;51.532;7.684;2023-03-31T14:06:59;98248.38;;;12.00;89.29
70468;BME280;57934;51.532;7.684;2023-03-31T14:09:34;98251.66;;;11.80;90.21
70468;BME280;57934;51.532;7.684;2023-03-31T14:14:53;98237.72;;;11.85;91.74
70468;BME280;57934;51.532;7.684;2023-03-31T14:17:22;98229.66;;;12.02;91.24
70468;BME280;57934;51.532;7.684;2023-03-31T14:20:08;98230.16;;;11.99;89.56
70468;BME280;57934;51.532;7.684;2023-03-31T14:23:09;98230.03;;;12.21;90.10
70468;BME280;57934;51.532;7.684;2023-03-31T14:28:27;98229.44;;;12.56;89.12
70468;BME280;57934;51.532;7.684;2023-03-31T14:36:43;98224.38;;;12.44;88.57
70468;BME280;57934;51.532;7.684;2023-03-31T14:39:15;98215.94;;;12.52;87.98
70468;BME280;57934;51.532;7.684;2023-03-31T14:41:51;98211.75;;;12.61;87.85
70468;BME280;57934;51.532;7.684;2023-03-31T14:44:18;98207.03;;;12.74;87.45
70468;BME280;57934;51.532;7.684;2023-03-31T14:46:45;98206.03;;;12.80;87.58
70468;BME280;57934;51.532;7.684;2023-03-31T14:49:22;98194.41;;;12.86;86.68
70468;BME280;57934;51.532;7.684;2023-03-31T14:51:52;98199.19;;;12.94;85.19
70468;BME280;57934;51.532;7.684;2023-03-31T14:54:19;98188.38;;;13.11;84.99
70468;BME280;57934;51.532;7.684;2023-03-31T14:56:53;98186.88;;;13.30;84.79
70468;BME280;57934;51.532;7.684;2023-03-31T14:59:23;98193.50;;;13.48;82.64
70468;BME280;57934;51.532;7.684;2023-03-31T15:01:50;98183.69;;;13.54;82.65
70468;BME280;57934;51.532;7.684;2023-03-31T15:04:20;98180.53;;;13.62;81.41
70468;BME280;57934;51.532;7.684;2023-03-31T15:06:48;98175.50;;;13.66;81.69
70468;BME280;57934;51.532;7.684;2023-03-31T15:09:29;98173.91;;;13.59;81.26
70468;BME280;57934;51.532;7.684;2023-03-31T15:12:03;98173.38;;;13.63;81.38
70468;BME280;57934;51.532;7.684;2023-03-31T15:14:35;98166.25;;;13.63;79.81
70468;BME280;57934;51.532;7.684;2023-03-31T15:17:01;98169.41;;;13.40;77.87
70468;BME280;57934;51.532;7.684;2023-03-31T15:19:29;98167.56;;;13.45;78.05
70468;BME280;57934;51.532;7.684;2023-03-31T15:22:11;98159.88;;;13.54;77.88
70468;BME280;57934;51.532;7.684;2023-03-31T15:24:41;98160.41;;;13.61;77.21
70468;BME280;57934;51.532;7.684;2023-03-31T15:27:38;98157.50;;;13.63;77.47
70468;BME280;57934;51.532;7.684;2023-03-31T15:30:06;98156.16;;;13.65;78.05
70468;BME280;57934;51.532;7.684;2023-03-31T15:32:37;98155.09;;;13.71;76.96
70468;BME280;57934;51.532;7.684;2023-03-31T15:35:05;98158.81;;;13.50;75.99
70468;BME280;57934;51.532;7.684;2023-03-31T15:37:38;98161.16;;;13.21;78.10
70468;BME280;57934;51.532;7.684;2023-03-31T15:42:44;98150.41;;;12.59;80.73
70468;BME280;57934;51.532;7.684;2023-03-31T15:47:55;98150.63;;;12.53;81.47
70468;BME280;57934;51.532;7.684;2023-03-31T15:50:23;98157.00;;;12.52;80.94
70468;BME280;57934;51.532;7.684;2023-03-31T15:52:51;98166.22;;;12.49;81.52
70468;BME280;57934;51.532;7.684;2023-03-31T15:55:29;98167.97;;;12.28;82.45
70468;BME280;57934;51.532;7.684;2023-03-31T15:57:58;98172.41;;;12.17;84.34
70468;BME280;57934;51.532;7.684;2023-03-31T16:00:44;98201.59;;;11.96;85.47